Time;durP1;ratioP1;P1;durP2;ratioP2;P2;SDS_P1;SDS_P2;PMS_P1;PMS_P2;Temp;Humidity;BMP_temperature;BMP_pressure;BME280_temperature;BME280_humidity;BME280_pressure;Samples;Min_cycle;Max_cycle;Signal;HPM_P1;HPM_P2
2022/12/13 00:01:40;;;;;;;72.38;27.70;;;-3.50;99.90;;;;;;4726214;28;9999724;-72
2022/12/13 00:04:07;;;;;;;70.35;26.58;;;-3.50;99.90;;;;;;5075399;28;20313;-72
2022/12/13 00:06:33;;;;;;;75.60;28.33;;;-3.60;99.90;;;;;;5080763;28;20023;-72
2022/12/13 00:09:00;;;;;;;74.55;27.67;;;-3.60;99.90;;;;;;5076957;28;20243;-72
2022/12/13 00:11:27;;;;;;;73.25;27.27;;;-3.60;99.90;;;;;;5084527;28;20032;-71
2022/12/13 00:13:53;;;;;;;75.45;28.10;;;-3.50;99.90;;;;;;5072186;28;20704;-72
2022/12/13 00:16:21;;;;;;;70.13;27.25;;;-3.50;99.90;;;;;;5074857;28;20051;-71
2022/12/13 00:18:48;;;;;;;75.13;29.50;;;-3.50;99.90;;;;;;5081630;28;20016;-72
2022/12/13 00:21:16;;;;;;;69.88;27.65;;;-3.50;99.90;;;;;;5078714;28;20401;-72
2022/12/13 00:23:42;;;;;;;72.03;27.90;;;-3.50;99.90;;;;;;5073888;28;20035;-72
2022/12/13 00:26:18;;;;;;;68.20;27.52;;;-3.50;99.90;;;;;;5082833;28;20024;-72
2022/12/13 00:28:45;;;;;;;75.22;28.17;;;-3.40;99.90;;;;;;5084947;28;20043;-72
2022/12/13 00:31:10;;;;;;;68.13;27.48;;;-3.40;99.90;;;;;;5086387;28;20447;-72
2022/12/13 00:33:38;;;;;;;80.20;27.88;;;-3.40;99.90;;;;;;5083925;28;20115;-72
2022/12/13 00:36:05;;;;;;;64.93;26.50;;;-3.40;99.90;;;;;;5076343;28;20035;-71
2022/12/13 00:38:31;;;;;;;67.40;26.98;;;-3.30;99.90;;;;;;5085072;28;20035;-71
2022/12/13 00:40:56;;;;;;;61.78;25.90;;;-3.30;99.90;;;;;;5082852;28;20020;-71
2022/12/13 00:43:22;;;;;;;126.00;27.08;;;-3.40;99.90;;;;;;5083635;28;20021;-71
2022/12/13 00:45:47;;;;;;;70.15;25.85;;;-3.40;99.90;;;;;;5078083;28;20051;-71
2022/12/13 00:48:13;;;;;;;81.47;27.30;;;-3.50;99.90;;;;;;5086553;28;20445;-71
2022/12/13 00:50:39;;;;;;;72.50;27.45;;;-3.50;99.90;;;;;;5082299;28;20036;-71
2022/12/13 00:53:05;;;;;;;71.50;26.98;;;-3.50;99.90;;;;;;5077443;28;20024;-72
2022/12/13 00:55:31;;;;;;;70.63;28.10;;;-3.50;99.90;;;;;;5076791;28;20028;-71
2022/12/13 00:57:57;;;;;;;73.65;27.40;;;-3.60;99.90;;;;;;5077469;28;20024;-71
2022/12/13 01:00:24;;;;;;;73.75;27.02;;;-3.60;99.90;;;;;;5083529;28;20043;-71
2022/12/13 01:02:52;;;;;;;68.43;26.13;;;-3.60;99.90;;;;;;5083502;28;20065;-71
2022/12/13 01:05:17;;;;;;;72.85;27.88;;;-3.60;99.90;;;;;;5080109;28;20474;-72
2022/12/13 01:07:44;;;;;;;70.25;27.08;;;-3.60;99.90;;;;;;5084571;28;20030;-71
2022/12/13 01:10:11;;;;;;;63.35;24.25;;;-3.60;99.90;;;;;;5084559;28;20085;-71
2022/12/13 01:12:37;;;;;;;72.13;26.27;;;-3.60;99.90;;;;;;5070935;28;20028;-71
2022/12/13 01:15:04;;;;;;;68.85;24.42;;;-3.70;99.90;;;;;;5078302;28;20020;-71
2022/12/13 01:17:30;;;;;;;65.95;25.63;;;-3.70;99.90;;;;;;5081886;28;20056;-71
2022/12/13 01:19:55;;;;;;;66.30;24.80;;;-3.70;99.90;;;;;;5083916;28;20062;-72
2022/12/13 01:22:22;;;;;;;70.72;24.38;;;-3.70;99.90;;;;;;5079003;28;20389;-71
2022/12/13 01:24:47;;;;;;;69.60;26.55;;;-3.80;99.90;;;;;;5082053;28;20020;-72
2022/12/13 01:27:13;;;;;;;73.70;26.52;;;-3.80;99.90;;;;;;5083163;28;20394;-72
2022/12/13 01:29:39;;;;;;;69.70;25.98;;;-3.80;99.90;;;;;;5078272;28;20040;-72
2022/12/13 01:32:05;;;;;;;74.55;27.48;;;-3.80;99.90;;;;;;5085236;28;20044;-71
2022/12/13 01:34:30;;;;;;;78.93;28.23;;;-3.80;99.90;;;;;;5072301;28;20036;-72
2022/12/13 01:36:56;;;;;;;81.97;28.05;;;-3.80;99.90;;;;;;5081692;28;20126;-72
2022/12/13 01:39:22;;;;;;;66.65;25.77;;;-3.80;99.90;;;;;;5078879;28;21626;-71
2022/12/13 01:41:50;;;;;;;68.93;26.95;;;-3.80;99.90;;;;;;5080470;28;20020;-71
2022/12/13 01:44:54;;;;;;;70.32;27.05;;;-3.80;99.90;;;;;;5076642;28;20041;-71
2022/12/13 01:47:27;;;;;;;75.82;26.77;;;-3.70;99.90;;;;;;5079126;28;20130;-72
2022/12/13 01:49:56;;;;;;;64.28;25.23;;;-3.60;99.90;;;;;;5081013;28;20036;-72
2022/12/13 01:52:22;;;;;;;60.55;24.33;;;-3.50;99.90;;;;;;5080660;28;20040;-71
2022/12/13 01:54:51;;;;;;;69.07;26.65;;;-3.50;99.90;;;;;;5079076;28;20032;-71
2022/12/13 01:57:18;;;;;;;67.65;26.23;;;-3.50;99.90;;;;;;5079267;28;20028;-71
2022/12/13 01:59:46;;;;;;;69.53;26.40;;;-3.60;99.90;;;;;;5076931;28;20048;-71
2022/12/13 02:02:13;;;;;;;70.50;25.40;;;-3.70;99.90;;;;;;5074615;28;20035;-71
2022/12/13 02:04:50;;;;;;;64.22;25.25;;;-3.70;99.90;;;;;;5080526;28;20394;-71
2022/12/13 02:07:20;;;;;;;59.97;24.25;;;-3.80;99.90;;;;;;5084075;28;20977;-72
2022/12/13 02:09:51;;;;;;;63.55;24.63;;;-3.70;99.90;;;;;;5084607;28;20505;-71
2022/12/13 02:12:17;;;;;;;61.63;23.77;;;-3.70;99.90;;;;;;5086793;28;20020;-71
2022/12/13 02:14:42;;;;;;;66.97;25.50;;;-3.70;99.90;;;;;;5080150;28;20025;-71
2022/12/13 02:17:27;;;;;;;71.18;25.25;;;-3.80;99.90;;;;;;5077714;28;20028;-71
2022/12/13 02:20:17;;;;;;;69.93;26.38;;;-3.90;99.90;;;;;;5075680;28;20086;-71
2022/12/13 02:22:42;;;;;;;64.25;24.27;;;-4.00;99.90;;;;;;5074290;28;20024;-71
2022/12/13 02:25:46;;;;;;;71.63;26.05;;;-4.00;99.90;;;;;;5073618;28;20029;-71
2022/12/13 02:28:30;;;;;;;69.35;25.33;;;-4.00;99.90;;;;;;5048157;28;20032;-71
2022/12/13 02:31:09;;;;;;;69.95;25.00;;;-4.00;99.90;;;;;;5078751;28;20030;-71
2022/12/13 02:33:58;;;;;;;77.25;25.38;;;-3.90;99.90;;;;;;5073127;28;20112;-72
2022/12/13 02:36:29;;;;;;;66.82;24.67;;;-3.90;99.90;;;;;;5075112;28;20099;-72
2022/12/13 02:39:15;;;;;;;64.97;23.73;;;-3.90;99.90;;;;;;5083757;28;20051;-71
2022/12/13 02:41:45;;;;;;;66.68;25.35;;;-4.00;99.90;;;;;;5079135;28;20682;-71
2022/12/13 02:44:26;;;;;;;66.70;24.92;;;-4.00;99.90;;;;;;5069770;28;20624;-71
2022/12/13 02:47:00;;;;;;;72.22;25.55;;;-4.00;99.90;;;;;;5079696;28;20024;-71
2022/12/13 02:49:31;;;;;;;69.10;25.17;;;-4.00;99.90;;;;;;5074413;28;20020;-71
2022/12/13 02:51:58;;;;;;;62.55;24.00;;;-4.00;99.90;;;;;;5075755;28;20028;-71
2022/12/13 02:54:23;;;;;;;63.72;24.38;;;-4.00;99.90;;;;;;5069639;28;20024;-71
2022/12/13 02:56:57;;;;;;;81.85;24.27;;;-4.00;99.90;;;;;;5078812;28;20031;-71
2022/12/13 02:59:35;;;;;;;75.05;24.23;;;-4.00;99.90;;;;;;5075666;28;20032;-70
2022/12/13 03:02:20;;;;;;;61.63;23.77;;;-4.00;99.90;;;;;;5073671;28;20038;-71
2022/12/13 03:08:00;;;;;;;72.10;25.55;;;-4.10;99.90;;;;;;5078309;28;20101;-71
2022/12/13 03:10:36;;;;;;;71.50;24.67;;;-4.10;99.90;;;;;;5078629;28;20520;-71
2022/12/13 03:13:35;;;;;;;66.78;23.60;;;-4.00;99.90;;;;;;5077041;28;20041;-71
2022/12/13 03:16:11;;;;;;;64.43;25.40;;;-4.00;99.90;;;;;;5072378;28;20028;-72
2022/12/13 03:18:38;;;;;;;66.57;24.27;;;-4.10;99.90;;;;;;5075808;28;20040;-72
2022/12/13 03:21:07;;;;;;;65.70;25.77;;;-4.10;99.90;;;;;;5078218;28;20042;-72
2022/12/13 03:23:33;;;;;;;76.50;25.13;;;-4.10;99.90;;;;;;5072957;28;21145;-72
2022/12/13 03:26:09;;;;;;;69.13;25.30;;;-4.10;99.90;;;;;;5076231;28;20023;-72
2022/12/13 03:28:35;;;;;;;80.45;25.27;;;-4.00;99.90;;;;;;5078261;28;20051;-72
2022/12/13 03:31:00;;;;;;;61.30;23.80;;;-3.90;99.90;;;;;;5078226;28;20021;-72
2022/12/13 03:33:26;;;;;;;62.80;22.88;;;-3.90;99.90;;;;;;5080317;28;20044;-72
2022/12/13 03:35:52;;;;;;;65.03;25.02;;;-3.90;99.90;;;;;;5079293;28;22944;-72
2022/12/13 03:38:18;;;;;;;72.28;25.50;;;-4.00;99.90;;;;;;5076187;28;20036;-72
2022/12/13 03:40:44;;;;;;;66.95;25.05;;;-4.00;99.90;;;;;;5080216;28;20110;-72
2022/12/13 03:43:10;;;;;;;62.95;23.52;;;-4.00;99.90;;;;;;5073180;28;20111;-72
2022/12/13 03:45:35;;;;;;;63.30;24.55;;;-4.00;99.90;;;;;;5075461;28;20131;-72
2022/12/13 03:48:01;;;;;;;65.32;24.33;;;-4.00;99.90;;;;;;5075652;28;20032;-72
2022/12/13 03:50:26;;;;;;;66.25;22.88;;;-4.00;99.90;;;;;;5074804;28;20028;-72
2022/12/13 03:52:58;;;;;;;64.75;24.65;;;-4.10;99.90;;;;;;5068120;28;20028;-72
2022/12/13 03:55:24;;;;;;;63.47;22.20;;;-4.10;99.90;;;;;;5077532;28;20016;-72
2022/12/13 03:57:50;;;;;;;67.63;22.25;;;-4.20;99.90;;;;;;5085271;28;20043;-72
2022/12/13 04:00:15;;;;;;;65.70;23.45;;;-4.20;99.90;;;;;;5081299;28;20454;-72
2022/12/13 04:02:41;;;;;;;65.57;24.55;;;-4.20;99.90;;;;;;5071581;28;20063;-72
2022/12/13 04:05:07;;;;;;;61.08;23.33;;;-4.20;99.90;;;;;;5091703;28;20020;-72
2022/12/13 04:07:32;;;;;;;61.80;22.38;;;-4.20;99.90;;;;;;5097450;28;20035;-72
2022/12/13 04:09:58;;;;;;;73.38;22.73;;;-4.20;99.90;;;;;;5089899;28;20123;-71
2022/12/13 04:15:08;;;;;;;60.80;23.38;;;-4.20;99.90;;;;;;5070896;28;20035;-72
2022/12/13 04:17:33;;;;;;;66.95;24.13;;;-4.20;99.90;;;;;;5081231;28;20028;-72
2022/12/13 04:19:59;;;;;;;63.30;22.90;;;-4.20;99.90;;;;;;5079206;28;20108;-72
2022/12/13 04:22:25;;;;;;;82.18;22.25;;;-4.20;99.90;;;;;;5078648;28;20469;-71
2022/12/13 04:24:50;;;;;;;61.30;22.65;;;-4.30;99.90;;;;;;5079382;28;20470;-72
2022/12/13 04:27:16;;;;;;;71.43;22.67;;;-4.20;99.90;;;;;;5079824;28;20077;-71
2022/12/13 04:29:41;;;;;;;61.47;23.55;;;-4.20;99.90;;;;;;5084933;28;20032;-72
2022/12/13 04:32:07;;;;;;;62.10;23.35;;;-4.20;99.90;;;;;;5075761;28;20028;-71
2022/12/13 04:34:33;;;;;;;59.85;23.63;;;-4.20;99.90;;;;;;5087079;28;20035;-72
2022/12/13 04:36:58;;;;;;;59.28;22.40;;;-4.20;99.90;;;;;;5079180;28;20052;-72
2022/12/13 04:39:24;;;;;;;61.20;23.48;;;-4.20;99.90;;;;;;5088533;28;20039;-72
2022/12/13 04:41:51;;;;;;;65.18;23.27;;;-4.20;99.90;;;;;;5084508;28;20908;-72
2022/12/13 04:44:17;;;;;;;64.70;23.63;;;-4.10;99.90;;;;;;5070174;28;20036;-72
2022/12/13 04:46:43;;;;;;;80.80;24.48;;;-4.20;99.90;;;;;;5079656;28;20086;-72
2022/12/13 04:49:08;;;;;;;59.22;22.55;;;-4.30;99.90;;;;;;5087110;28;20039;-72
2022/12/13 04:51:34;;;;;;;60.58;22.27;;;-4.30;99.90;;;;;;5076329;28;20024;-72
2022/12/13 04:53:59;;;;;;;70.05;23.55;;;-4.30;99.90;;;;;;5075152;28;20518;-72
2022/12/13 04:56:25;;;;;;;62.88;23.10;;;-4.30;99.90;;;;;;5081015;28;20540;-72
2022/12/13 04:58:51;;;;;;;61.97;23.50;;;-4.30;99.90;;;;;;5093730;28;20027;-72
2022/12/13 05:01:17;;;;;;;59.20;22.67;;;-4.30;99.90;;;;;;5085394;28;20069;-72
2022/12/13 05:03:42;;;;;;;70.90;23.58;;;-4.30;99.90;;;;;;5078777;28;20471;-72
2022/12/13 05:06:11;;;;;;;67.20;22.73;;;-4.30;99.90;;;;;;5080526;28;20051;-72
2022/12/13 05:08:37;;;;;;;64.53;22.98;;;-4.30;99.90;;;;;;5088580;28;20111;-72
2022/12/13 05:11:03;;;;;;;67.93;24.27;;;-4.30;99.90;;;;;;5079550;28;20097;-72
2022/12/13 05:13:29;;;;;;;75.72;23.83;;;-4.40;99.90;;;;;;5080335;28;20036;-72
2022/12/13 05:16:01;;;;;;;74.80;23.58;;;-4.40;99.90;;;;;;5075858;28;20390;-72
2022/12/13 05:18:28;;;;;;;61.47;23.67;;;-4.40;99.90;;;;;;5086206;28;20749;-72
2022/12/13 05:20:54;;;;;;;74.00;23.90;;;-4.50;99.90;;;;;;5082945;28;20131;-72
2022/12/13 05:23:22;;;;;;;90.10;23.27;;;-4.40;99.90;;;;;;5082633;28;20529;-72
2022/12/13 05:25:48;;;;;;;64.07;23.00;;;-4.40;99.90;;;;;;5079343;28;20028;-72
2022/12/13 05:28:14;;;;;;;62.03;23.33;;;-4.40;99.90;;;;;;5081698;28;20085;-72
2022/12/13 05:30:40;;;;;;;73.07;23.00;;;-4.40;99.90;;;;;;5081883;28;20031;-72
2022/12/13 05:33:06;;;;;;;74.10;21.52;;;-4.40;99.90;;;;;;5082109;28;20059;-72
2022/12/13 05:35:32;;;;;;;60.65;22.80;;;-4.40;99.90;;;;;;5088101;28;20062;-72
2022/12/13 05:37:58;;;;;;;68.05;23.63;;;-4.40;99.90;;;;;;5091227;28;20102;-72
2022/12/13 05:40:25;;;;;;;61.90;23.80;;;-4.40;99.90;;;;;;5081121;28;20573;-71
2022/12/13 05:42:51;;;;;;;68.03;23.38;;;-4.40;99.90;;;;;;5073807;28;20038;-72
2022/12/13 05:45:18;;;;;;;69.93;24.58;;;-4.40;99.90;;;;;;5084696;28;20595;-73
2022/12/13 05:47:44;;;;;;;73.30;25.10;;;-4.30;99.90;;;;;;5078841;28;20082;-73
2022/12/13 05:50:10;;;;;;;69.53;24.00;;;-4.30;99.90;;;;;;5083584;28;20421;-72
2022/12/13 05:52:35;;;;;;;75.38;24.52;;;-4.30;99.90;;;;;;5077787;28;20336;-73
2022/12/13 05:55:01;;;;;;;63.60;23.60;;;-4.30;99.90;;;;;;5078302;28;20111;-72
2022/12/13 05:57:27;;;;;;;61.45;23.15;;;-4.40;99.90;;;;;;5079885;28;20478;-73
2022/12/13 05:59:53;;;;;;;70.03;24.25;;;-4.40;99.90;;;;;;5084685;28;20031;-72
2022/12/13 06:02:18;;;;;;;65.75;22.40;;;-4.40;99.90;;;;;;5075657;28;20031;-72
2022/12/13 06:04:44;;;;;;;66.40;22.52;;;-4.40;99.90;;;;;;5081220;28;20044;-73
2022/12/13 06:07:11;;;;;;;62.45;23.67;;;-4.40;99.90;;;;;;5074007;28;20039;-73
2022/12/13 06:09:37;;;;;;;63.63;24.27;;;-4.40;99.90;;;;;;5073118;28;20051;-73
2022/12/13 06:12:03;;;;;;;63.67;22.73;;;-4.40;99.90;;;;;;5065670;28;20085;-72
2022/12/13 06:14:28;;;;;;;89.65;23.77;;;-4.50;99.90;;;;;;5071388;28;20044;-72
2022/12/13 06:16:54;;;;;;;65.38;23.63;;;-4.50;99.90;;;;;;5072234;28;20098;-72
2022/12/13 06:19:20;;;;;;;62.42;23.05;;;-4.40;99.90;;;;;;5076106;28;20147;-72
2022/12/13 06:21:46;;;;;;;60.70;22.35;;;-4.40;99.90;;;;;;5072592;28;20028;-72
2022/12/13 06:24:14;;;;;;;60.05;22.02;;;-4.40;99.90;;;;;;5070506;28;20024;-73
2022/12/13 06:26:40;;;;;;;59.30;21.90;;;-4.40;99.90;;;;;;5070721;28;20393;-72
2022/12/13 06:29:05;;;;;;;61.55;23.38;;;-4.40;99.90;;;;;;5079493;28;20219;-72
2022/12/13 06:31:31;;;;;;;60.45;22.30;;;-4.50;99.90;;;;;;5081824;28;20036;-73
2022/12/13 06:34:03;;;;;;;62.40;22.77;;;-4.50;99.90;;;;;;5079531;28;20046;-72
2022/12/13 06:36:29;;;;;;;59.37;22.33;;;-4.50;99.90;;;;;;5075616;28;20124;-72
2022/12/13 06:38:55;;;;;;;58.63;22.35;;;-4.50;99.90;;;;;;5080210;28;20321;-72
2022/12/13 06:41:21;;;;;;;65.47;23.90;;;-4.50;99.90;;;;;;5077770;28;20058;-72
2022/12/13 06:43:47;;;;;;;74.53;26.42;;;-4.50;99.90;;;;;;5077793;28;20683;-72
2022/12/13 06:46:14;;;;;;;72.10;23.92;;;-4.50;99.90;;;;;;5071534;28;20017;-72
2022/12/13 06:48:40;;;;;;;73.03;25.67;;;-4.40;99.90;;;;;;5080002;28;20021;-72
2022/12/13 06:51:06;;;;;;;58.20;22.52;;;-4.30;99.90;;;;;;5086505;28;20378;-72
2022/12/13 06:53:33;;;;;;;58.80;22.10;;;-4.00;99.90;;;;;;5082898;28;20054;-77
2022/12/13 06:56:04;;;;;;;57.63;22.83;;;-3.80;99.90;;;;;;5082571;28;20094;-76
2022/12/13 06:58:31;;;;;;;57.28;21.73;;;-3.60;99.90;;;;;;5078531;28;20508;-76
2022/12/13 07:01:05;;;;;;;59.60;22.90;;;-3.60;99.90;;;;;;5077090;28;20032;-76
2022/12/13 07:03:31;;;;;;;60.33;21.92;;;-3.60;99.90;;;;;;5071172;28;20036;-76
2022/12/13 07:06:04;;;;;;;71.53;23.17;;;-3.60;99.90;;;;;;5086201;28;20028;-76
2022/12/13 07:08:30;;;;;;;66.00;22.92;;;-3.60;99.90;;;;;;5083328;28;20036;-76
2022/12/13 07:10:57;;;;;;;58.15;21.85;;;-3.80;99.90;;;;;;5085949;28;20583;-76
2022/12/13 07:13:22;;;;;;;61.47;22.40;;;-4.00;99.90;;;;;;5078999;28;20032;-76
2022/12/13 07:15:49;;;;;;;65.43;23.30;;;-4.10;99.90;;;;;;5074506;28;20422;-76
2022/12/13 07:18:15;;;;;;;70.82;25.23;;;-4.20;99.90;;;;;;5078550;28;20028;-75
2022/12/13 07:20:41;;;;;;;56.85;21.92;;;-4.30;99.90;;;;;;5081261;28;20027;-75
2022/12/13 07:23:07;;;;;;;57.35;22.52;;;-4.30;99.90;;;;;;5075302;28;20028;-75
2022/12/13 07:25:33;;;;;;;60.92;23.13;;;-4.30;99.90;;;;;;5075141;28;20059;-74
2022/12/13 07:28:01;;;;;;;58.10;22.27;;;-4.30;99.90;;;;;;5081647;28;20470;-75
2022/12/13 07:30:26;;;;;;;62.33;24.58;;;-4.30;99.90;;;;;;5081869;28;20040;-75
2022/12/13 07:32:52;;;;;;;70.78;24.25;;;-4.40;99.90;;;;;;5073360;28;20118;-75
2022/12/13 07:35:18;;;;;;;70.05;22.98;;;-4.50;99.90;;;;;;5076325;28;20102;-75
2022/12/13 07:37:43;;;;;;;52.08;19.60;;;-4.60;99.90;;;;;;5080306;28;20032;-75
2022/12/13 07:40:10;;;;;;;52.33;20.08;;;-4.70;99.90;;;;;;5074005;28;20066;-75
2022/12/13 07:42:36;;;;;;;64.10;20.20;;;-4.80;99.90;;;;;;5072888;28;20059;-75
2022/12/13 07:45:01;;;;;;;68.75;25.65;;;-4.80;99.90;;;;;;5074464;28;20809;-75
2022/12/13 07:47:31;;;;;;;78.22;24.27;;;-4.90;99.90;;;;;;5079091;28;20035;-75
2022/12/13 07:49:57;;;;;;;55.17;20.65;;;-4.90;99.90;;;;;;5080455;28;20591;-75
2022/12/13 07:52:23;;;;;;;62.42;20.23;;;-4.90;99.90;;;;;;5077568;28;20032;-75
2022/12/13 07:54:48;;;;;;;59.85;21.08;;;-5.00;99.90;;;;;;5072255;28;20671;-74
2022/12/13 07:57:14;;;;;;;56.92;20.05;;;-5.00;99.90;;;;;;5079463;28;20362;-75
2022/12/13 07:59:40;;;;;;;62.97;21.60;;;-5.00;99.90;;;;;;5081982;28;20512;-74
2022/12/13 08:02:11;;;;;;;62.25;22.58;;;-4.90;99.90;;;;;;5073834;28;20028;-74
2022/12/13 08:04:37;;;;;;;68.00;22.38;;;-4.90;99.90;;;;;;5085036;28;20100;-74
2022/12/13 08:07:07;;;;;;;63.30;22.45;;;-4.90;99.90;;;;;;5075367;28;20116;-74
2022/12/13 08:09:33;;;;;;;64.47;21.35;;;-4.90;99.90;;;;;;5082176;28;20071;-75
2022/12/13 08:12:00;;;;;;;59.25;20.77;;;-4.90;99.90;;;;;;5079206;28;20075;-74
2022/12/13 08:14:26;;;;;;;56.70;20.60;;;-4.80;99.90;;;;;;5078169;28;20036;-74
2022/12/13 08:16:52;;;;;;;73.13;21.08;;;-4.90;99.90;;;;;;5079022;28;20036;-75
2022/12/13 08:19:18;;;;;;;48.13;18.50;;;-4.80;99.90;;;;;;5076493;28;20028;-75
2022/12/13 08:21:43;;;;;;;59.80;22.77;;;-4.80;99.90;;;;;;5072932;28;20353;-74
2022/12/13 08:24:09;;;;;;;58.50;22.55;;;-4.80;99.90;;;;;;5072941;28;20652;-82
2022/12/13 08:26:35;;;;;;;59.42;21.45;;;-4.80;99.90;;;;;;5075518;28;20308;-82
2022/12/13 08:29:00;;;;;;;60.00;20.80;;;-4.70;99.90;;;;;;5080206;28;20694;-82
2022/12/13 08:31:26;;;;;;;48.83;19.67;;;-4.60;99.90;;;;;;5082216;28;20032;-82
2022/12/13 08:33:52;;;;;;;61.88;22.55;;;-4.60;99.90;;;;;;5081586;28;20028;-82
2022/12/13 08:36:18;;;;;;;61.65;23.00;;;-4.60;99.90;;;;;;5073011;28;20101;-82
2022/12/13 08:38:44;;;;;;;58.28;21.83;;;-4.50;99.90;;;;;;5071235;28;20406;-81
2022/12/13 08:41:11;;;;;;;57.97;22.02;;;-4.50;99.90;;;;;;5079007;28;20032;-82
2022/12/13 08:43:36;;;;;;;68.07;23.25;;;-4.40;99.90;;;;;;5075146;28;20115;-78
2022/12/13 08:46:03;;;;;;;57.50;22.13;;;-4.50;99.90;;;;;;5076762;28;20185;-78
2022/12/13 08:48:29;;;;;;;56.70;20.50;;;-4.40;99.90;;;;;;5082727;28;20032;-80
2022/12/13 08:51:02;;;;;;;59.38;21.70;;;-4.40;99.90;;;;;;5083540;28;20034;-78
2022/12/13 08:53:28;;;;;;;67.25;19.67;;;-4.40;99.90;;;;;;5076760;28;20648;-76
2022/12/13 08:55:58;;;;;;;58.40;21.15;;;-4.30;99.90;;;;;;5082730;28;20032;-76
2022/12/13 08:58:23;;;;;;;60.78;21.40;;;-4.30;99.90;;;;;;5078026;28;20382;-76
2022/12/13 09:00:49;;;;;;;59.85;22.48;;;-4.30;99.90;;;;;;5084514;28;20031;-79
2022/12/13 09:03:15;;;;;;;60.30;21.70;;;-4.30;99.90;;;;;;5081591;28;20106;-81
2022/12/13 09:05:41;;;;;;;63.85;22.67;;;-4.30;99.90;;;;;;5079464;28;20028;-76
2022/12/13 09:08:06;;;;;;;56.22;21.48;;;-4.30;99.90;;;;;;5084895;28;20036;-81
2022/12/13 09:10:32;;;;;;;63.25;22.48;;;-4.40;99.90;;;;;;5079890;28;20039;-82
2022/12/13 09:13:00;;;;;;;62.88;21.38;;;-4.40;99.90;;;;;;5084595;28;20162;-78
2022/12/13 09:15:29;;;;;;;57.60;21.55;;;-4.40;99.90;;;;;;5076552;28;20066;-77
2022/12/13 09:17:55;;;;;;;62.30;22.60;;;-4.30;99.90;;;;;;5085194;28;20459;-78
2022/12/13 09:20:21;;;;;;;58.42;21.10;;;-4.30;99.90;;;;;;5080655;28;20118;-77
2022/12/13 09:22:46;;;;;;;55.90;20.25;;;-4.30;99.90;;;;;;5079255;28;20482;-80
2022/12/13 09:25:12;;;;;;;62.45;21.00;;;-4.20;99.90;;;;;;5085184;28;20055;-81
2022/12/13 09:27:38;;;;;;;48.28;19.58;;;-4.20;99.90;;;;;;5078930;28;20199;-76
2022/12/13 09:30:05;;;;;;;64.35;20.10;;;-4.20;99.90;;;;;;5079754;28;20127;-78
2022/12/13 09:32:31;;;;;;;79.35;20.90;;;-4.20;99.90;;;;;;5081809;28;20216;-78
2022/12/13 09:34:56;;;;;;;58.45;20.67;;;-4.20;99.90;;;;;;5082865;28;20136;-78
2022/12/13 09:37:22;;;;;;;54.28;21.00;;;-4.30;99.90;;;;;;5082671;28;20036;-78
2022/12/13 09:39:48;;;;;;;48.67;19.90;;;-4.30;99.90;;;;;;5084784;28;20131;-78
2022/12/13 09:42:23;;;;;;;51.55;19.75;;;-4.20;99.90;;;;;;5073528;28;20527;-78
2022/12/13 09:44:55;;;;;;;146.25;20.45;;;-4.10;99.90;;;;;;5083371;28;20048;-78
2022/12/13 09:47:34;;;;;;;46.92;19.10;;;-4.10;99.90;;;;;;5085424;28;20064;-78
2022/12/13 09:50:03;;;;;;;56.53;21.02;;;-4.10;99.90;;;;;;5079698;28;20043;-77
2022/12/13 09:52:37;;;;;;;53.40;20.85;;;-4.10;99.90;;;;;;5075741;28;20414;-71
2022/12/13 09:55:16;;;;;;;54.60;20.83;;;-4.00;99.90;;;;;;5070141;28;20035;-73
2022/12/13 09:57:42;;;;;;;53.63;20.35;;;-3.90;99.90;;;;;;5081464;28;20054;-73
2022/12/13 10:00:13;;;;;;;56.00;20.42;;;-3.90;99.90;;;;;;5078326;28;20027;-72
2022/12/13 10:02:55;;;;;;;62.00;21.55;;;-3.80;99.90;;;;;;5079475;28;22758;-73
2022/12/13 10:05:36;;;;;;;45.03;16.98;;;-3.70;99.90;;;;;;5075077;28;20052;-73
2022/12/13 10:08:19;;;;;;;55.25;20.95;;;-3.70;99.90;;;;;;5075325;28;20040;-73
2022/12/13 10:10:48;;;;;;;56.70;20.42;;;-3.60;99.90;;;;;;5076554;28;20035;-73
2022/12/13 10:13:23;;;;;;;63.58;22.55;;;-3.70;99.90;;;;;;5075924;28;20101;-74
2022/12/13 10:16:04;;;;;;;69.60;22.05;;;-3.70;99.90;;;;;;5085637;28;20039;-73
2022/12/13 10:18:38;;;;;;;58.28;21.27;;;-3.70;99.90;;;;;;5078930;28;20070;-73
2022/12/13 10:21:35;;;;;;;58.63;21.48;;;-3.70;99.90;;;;;;5082302;28;20026;-73
2022/12/13 10:24:32;;;;;;;70.32;21.67;;;-3.80;99.90;;;;;;5060889;28;20039;-73
2022/12/13 10:27:09;;;;;;;54.33;21.02;;;-3.80;99.90;;;;;;5080296;28;20029;-72
2022/12/13 10:29:55;;;;;;;66.63;21.90;;;-3.80;99.90;;;;;;5082568;28;20028;-72
2022/12/13 10:32:21;;;;;;;62.47;23.25;;;-3.80;99.90;;;;;;5077598;28;20040;-73
2022/12/13 10:34:47;;;;;;;64.50;21.63;;;-3.80;99.90;;;;;;5079214;28;20030;-72
2022/12/13 10:37:29;;;;;;;61.95;21.25;;;-3.80;99.90;;;;;;5079836;28;20390;-73
2022/12/13 10:39:55;;;;;;;54.30;21.90;;;-3.80;99.90;;;;;;4725235;28;10000150;-82
2022/12/13 10:42:21;;;;;;;57.90;21.92;;;-3.80;99.90;;;;;;5077092;28;20024;-75
2022/12/13 10:44:48;;;;;;;56.63;21.30;;;-3.80;99.90;;;;;;5075177;28;20252;-76
2022/12/13 10:47:22;;;;;;;56.30;21.02;;;-3.80;99.90;;;;;;5072742;28;20595;-81
2022/12/13 10:49:57;;;;;;;57.03;22.25;;;-3.70;99.90;;;;;;5069360;28;20505;-80
2022/12/13 10:52:36;;;;;;;61.10;22.80;;;-3.80;99.90;;;;;;5081381;28;20086;-80
2022/12/13 10:55:06;;;;;;;54.03;21.27;;;-3.70;99.90;;;;;;5079264;28;20509;-78
2022/12/13 10:57:32;;;;;;;51.47;21.02;;;-3.60;99.90;;;;;;5081058;28;20273;-78
2022/12/13 10:59:58;;;;;;;56.08;21.60;;;-3.60;99.90;;;;;;5081480;28;21870;-80
2022/12/13 11:02:31;;;;;;;55.35;22.30;;;-3.50;99.90;;;;;;5075881;28;20036;-77
2022/12/13 11:04:57;;;;;;;;;;;-3.50;99.90;;;;;;5072710;28;20165;-78
2022/12/13 11:07:31;;;;;;;56.17;22.38;;;-3.50;99.90;;;;;;5073696;28;19934;-76
2022/12/13 11:10:20;;;;;;;59.72;21.27;;;-3.50;99.90;;;;;;5075750;28;20036;-80
2022/12/13 11:12:46;;;;;;;53.50;21.38;;;-3.50;99.90;;;;;;5070898;28;20032;-80
2022/12/13 11:15:21;;;;;;;59.33;22.23;;;-3.40;99.90;;;;;;5079155;28;20081;-79
2022/12/13 11:17:59;;;;;;;58.60;22.23;;;-3.30;99.90;;;;;;5079038;28;20038;-76
2022/12/13 11:20:45;;;;;;;57.85;22.08;;;-3.20;99.90;;;;;;5077763;28;20063;-76
2022/12/13 11:23:24;;;;;;;59.22;22.63;;;-3.20;99.90;;;;;;5071095;28;20024;-78
2022/12/13 11:25:55;;;;;;;58.95;22.35;;;-3.20;99.90;;;;;;5076776;28;20025;-75
2022/12/13 11:28:58;;;;;;;65.47;23.38;;;-3.10;99.90;;;;;;5074563;28;20024;-76
2022/12/13 11:31:45;;;;;;;58.40;22.77;;;-3.10;99.90;;;;;;5070825;28;20521;-76
2022/12/13 11:34:16;;;;;;;57.80;22.83;;;-3.20;99.90;;;;;;5070733;28;20060;-77
2022/12/13 11:36:47;;;;;;;65.82;24.85;;;-3.20;99.90;;;;;;5077357;28;20044;-79
2022/12/13 11:39:33;;;;;;;68.82;23.63;;;-3.30;99.90;;;;;;5071936;28;20621;-78
2022/12/13 11:42:24;;;;;;;62.10;23.83;;;-3.30;99.90;;;;;;5076811;28;20050;-79
2022/12/13 11:44:50;;;;;;;62.20;24.98;;;-3.40;99.90;;;;;;5076476;28;20623;-86
2022/12/13 11:47:42;;;;;;;62.28;23.50;;;-3.40;99.90;;;;;;5070107;28;20032;-78
2022/12/13 11:50:26;;;;;;;61.80;24.60;;;-3.40;99.90;;;;;;5077437;28;20040;-85
2022/12/13 11:52:56;;;;;;;73.07;25.70;;;-3.40;99.90;;;;;;5061361;28;20028;-85
2022/12/13 11:55:24;;;;;;;60.78;23.00;;;-3.40;99.90;;;;;;5074000;28;20063;-84
2022/12/13 11:58:00;;;;;;;64.72;24.25;;;-3.40;99.90;;;;;;5077420;28;20048;-75
2022/12/13 12:00:37;;;;;;;58.55;22.42;;;-3.40;99.90;;;;;;5069251;28;20043;-76
2022/12/13 12:03:06;;;;;;;58.35;23.10;;;-3.50;99.90;;;;;;5083240;28;20708;-76
2022/12/13 12:05:36;;;;;;;60.85;23.83;;;-3.50;99.90;;;;;;5071253;28;20042;-78
2022/12/13 12:08:39;;;;;;;60.92;23.00;;;-3.50;99.90;;;;;;5071695;28;20154;-76
2022/12/13 12:11:22;;;;;;;55.50;21.67;;;-3.40;99.90;;;;;;5074324;28;20036;-75
2022/12/13 12:13:58;;;;;;;;;;;-3.50;99.90;;;;;;5061742;28;20147;-74
2022/12/13 12:16:56;;;;;;;55.72;21.23;;;-3.40;99.90;;;;;;5071395;28;19957;-76
2022/12/13 12:19:24;;;;;;;57.10;22.45;;;-3.40;99.90;;;;;;5079923;28;20035;-74
2022/12/13 12:21:59;;;;;;;53.28;21.33;;;-3.40;99.90;;;;;;5078633;28;20039;-74
2022/12/13 12:24:33;;;;;;;56.08;21.67;;;-3.50;99.90;;;;;;5077822;28;20107;-75
2022/12/13 12:27:10;;;;;;;54.40;21.08;;;-3.60;99.90;;;;;;5079120;28;20557;-74
2022/12/13 12:30:14;;;;;;;53.55;21.90;;;-3.50;99.90;;;;;;5076936;28;20451;-74
2022/12/13 12:32:48;;;;;;;56.00;21.23;;;-3.60;99.90;;;;;;5069913;28;20035;-75
2022/12/13 12:35:19;;;;;;;55.05;21.35;;;-3.60;99.90;;;;;;5081030;28;20074;-76
2022/12/13 12:37:46;;;;;;;57.63;22.77;;;-3.60;99.90;;;;;;5072318;28;20618;-74
2022/12/13 12:40:35;;;;;;;56.42;22.17;;;-3.70;99.90;;;;;;5079329;28;20099;-76
2022/12/13 12:43:29;;;;;;;53.55;21.58;;;-3.60;99.90;;;;;;5070667;28;20020;-76
2022/12/13 12:46:04;;;;;;;58.17;22.77;;;-3.60;99.90;;;;;;5075511;28;20075;-77
2022/12/13 12:49:00;;;;;;;57.42;22.48;;;-3.70;99.90;;;;;;5076849;28;20059;-83